Alburtis, Pennsylvania
Current Conditions -  °F | °C
As of 11:35 PM on Wednesday 22 Oct 2014 (Local Time) from KXLL Reporting Station
Overcast Overcast  
Wind Chill: 52°   Ceiling: 2500
Heat Index: 52°   Visibility: 10mi
Dew Point: 45°   Wind: 14mph
Humidity: 76%   Direction: 330°NNW
Pressure: 29.85"   Gusts: 24mph
Location:  40.51°N, 75.6°W
Report Text: KXLL 230335Z AUTO 33012G21KT 10SM OVC025 11/07 A2985 RMK AO2 LTG DSNT NE
Loading
Personal Weather Stations






























Interactive Weather Map
Tropical Storm Tracking
New forecast layout! Learn more

10-Day Weather Forecast

Advertisements
Track Severe Weather on mobile